createdAt,value
2023-03-01T00:01:17.254Z,-1.70
2023-03-01T00:03:44.547Z,-1.70
2023-03-01T00:06:12.058Z,-1.70
2023-03-01T00:08:38.963Z,-1.70
2023-03-01T00:11:09.417Z,-1.70
2023-03-01T00:13:36.985Z,-1.70
2023-03-01T00:16:29.347Z,-1.80
2023-03-01T00:18:57.812Z,-1.80
2023-03-01T00:21:25.389Z,-1.80
2023-03-01T00:23:52.650Z,-1.80
2023-03-01T00:26:22.412Z,-1.90
2023-03-01T00:28:50.142Z,-1.90
2023-03-01T00:31:23.281Z,-2.00
2023-03-01T00:33:53.101Z,-2.00
2023-03-01T00:36:20.771Z,-1.90
2023-03-01T00:38:47.611Z,-1.90
2023-03-01T00:41:17.626Z,-1.80
2023-03-01T00:43:45.218Z,-1.80
2023-03-01T00:46:15.152Z,-1.70
2023-03-01T00:48:42.533Z,-1.70
2023-03-01T00:51:18.042Z,-1.60
2023-03-01T00:53:45.997Z,-1.60
2023-03-01T00:56:15.346Z,-1.60
2023-03-01T00:58:43.118Z,-1.70
2023-03-01T01:01:19.305Z,-1.70
2023-03-01T01:03:50.512Z,-1.70
2023-03-01T01:06:20.614Z,-1.70
2023-03-01T01:08:47.881Z,-1.80
2023-03-01T01:11:15.782Z,-1.80
2023-03-01T01:13:42.548Z,-1.80
2023-03-01T01:16:10.114Z,-1.80
2023-03-01T01:18:37.252Z,-1.90
2023-03-01T01:21:08.894Z,-1.80
2023-03-01T01:23:36.107Z,-1.80
2023-03-01T01:26:14.529Z,-1.80
2023-03-01T01:28:41.679Z,-1.80
2023-03-01T01:31:08.616Z,-1.80
2023-03-01T01:33:35.873Z,-1.80
2023-03-01T01:36:03.241Z,-1.70
2023-03-01T01:38:30.194Z,-1.60
2023-03-01T01:40:57.118Z,-1.60
2023-03-01T01:43:30.152Z,-1.60
2023-03-01T01:46:20.608Z,-1.60
2023-03-01T01:49:19.752Z,-1.60
2023-03-01T01:51:49.853Z,-1.60
2023-03-01T01:54:28.957Z,-1.60
2023-03-01T01:57:04.455Z,-1.70
2023-03-01T01:59:33.549Z,-1.70
2023-03-01T02:02:04.145Z,-1.70
2023-03-01T02:04:32.555Z,-1.70
2023-03-01T02:07:04.797Z,-1.80
2023-03-01T02:09:33.154Z,-1.80
2023-03-01T02:12:01.098Z,-1.90
2023-03-01T02:14:27.992Z,-1.90
2023-03-01T02:16:55.024Z,-2.00
2023-03-01T02:19:47.724Z,-2.00
2023-03-01T02:22:25.535Z,-2.10
2023-03-01T02:25:09.771Z,-2.20
2023-03-01T02:27:59.778Z,-2.30
2023-03-01T02:30:28.535Z,-2.30
2023-03-01T02:33:03.772Z,-2.30
2023-03-01T02:35:34.834Z,-2.20
2023-03-01T02:38:03.662Z,-2.10
2023-03-01T02:40:31.728Z,-2.10
2023-03-01T02:43:00.354Z,-2.00
2023-03-01T02:45:28.490Z,-1.90
2023-03-01T02:47:56.425Z,-1.90
2023-03-01T02:50:29.327Z,-1.80
2023-03-01T02:53:09.071Z,-1.80
2023-03-01T02:55:36.204Z,-1.80
2023-03-01T02:58:04.509Z,-1.80
2023-03-01T03:00:41.279Z,-1.80
2023-03-01T03:03:08.725Z,-1.80
2023-03-01T03:05:35.658Z,-1.80
2023-03-01T03:08:04.605Z,-1.80
2023-03-01T03:10:38.660Z,-1.90
2023-03-01T03:13:08.588Z,-1.80
2023-03-01T03:15:37.015Z,-1.80
2023-03-01T03:18:06.256Z,-1.80
2023-03-01T03:20:34.296Z,-1.70
2023-03-01T03:23:01.355Z,-1.70
2023-03-01T03:25:29.834Z,-1.70
2023-03-01T03:28:01.116Z,-1.70
2023-03-01T03:30:30.905Z,-1.70
2023-03-01T03:32:58.803Z,-1.70
2023-03-01T03:35:39.796Z,-1.80
2023-03-01T03:38:16.354Z,-1.80
2023-03-01T03:40:46.004Z,-1.90
2023-03-01T03:43:19.235Z,-1.90
2023-03-01T03:45:47.692Z,-1.90
2023-03-01T03:48:15.183Z,-2.00
2023-03-01T03:50:42.826Z,-1.90
2023-03-01T03:53:12.667Z,-1.90
2023-03-01T03:55:40.181Z,-1.80
2023-03-01T03:58:09.422Z,-1.80
2023-03-01T04:00:44.929Z,-1.90
2023-03-01T04:03:13.663Z,-1.90
2023-03-01T04:05:41.694Z,-2.00
2023-03-01T04:08:09.486Z,-2.00
2023-03-01T04:10:41.797Z,-2.00
2023-03-01T04:13:12.746Z,-2.00
2023-03-01T04:15:40.835Z,-2.10
2023-03-01T04:18:08.217Z,-2.10
2023-03-01T04:20:36.560Z,-2.10
2023-03-01T04:23:14.549Z,-2.20
2023-03-01T04:25:54.919Z,-2.20
2023-03-01T04:28:22.976Z,-2.30
2023-03-01T04:30:49.825Z,-2.30
2023-03-01T04:33:16.901Z,-2.40
2023-03-01T04:35:43.792Z,-2.40
2023-03-01T04:38:10.976Z,-2.40
2023-03-01T04:40:38.443Z,-2.40
2023-03-01T04:43:05.890Z,-2.40
2023-03-01T04:45:35.471Z,-2.50
2023-03-01T04:48:02.594Z,-2.60
2023-03-01T04:50:30.026Z,-2.60
2023-03-01T04:53:00.751Z,-2.70
2023-03-01T04:55:29.126Z,-2.70
2023-03-01T04:57:56.419Z,-2.70
2023-03-01T05:00:24.169Z,-2.80
2023-03-01T05:03:03.030Z,-2.80
2023-03-01T05:05:36.155Z,-2.80
2023-03-01T05:08:08.630Z,-2.80
2023-03-01T05:10:37.301Z,-2.80
2023-03-01T05:13:04.955Z,-2.80
2023-03-01T05:15:32.647Z,-2.90
2023-03-01T05:18:01.175Z,-2.90
2023-03-01T05:20:29.796Z,-2.90
2023-03-01T05:22:59.785Z,-3.00
2023-03-01T05:25:28.140Z,-3.00
2023-03-01T05:27:55.014Z,-3.00
2023-03-01T05:30:22.652Z,-3.00
2023-03-01T05:32:56.670Z,-3.10
2023-03-01T05:35:24.020Z,-3.10
2023-03-01T05:37:52.282Z,-3.10
2023-03-01T05:40:25.280Z,-3.10
2023-03-01T05:42:57.252Z,-3.10
2023-03-01T05:45:25.763Z,-3.10
2023-03-01T05:47:53.856Z,-3.10
2023-03-01T05:50:26.443Z,-3.00
2023-03-01T05:53:01.177Z,-3.10
2023-03-01T05:55:29.669Z,-3.10
2023-03-01T05:57:58.487Z,-3.20
2023-03-01T06:00:25.472Z,-3.10
2023-03-01T06:02:55.037Z,-3.10
2023-03-01T06:05:22.000Z,-3.10
2023-03-01T06:07:48.937Z,-3.10
2023-03-01T06:10:15.932Z,-3.10
2023-03-01T06:12:44.824Z,-3.20
2023-03-01T06:15:14.975Z,-3.20
2023-03-01T06:17:44.065Z,-3.20
2023-03-01T06:20:22.123Z,-3.20
2023-03-01T06:22:50.410Z,-3.20
2023-03-01T06:25:20.299Z,-3.10
2023-03-01T06:27:47.709Z,-3.10
2023-03-01T06:30:16.690Z,-3.20
2023-03-01T06:32:43.566Z,-3.20
2023-03-01T06:35:12.266Z,-3.20
2023-03-01T06:37:39.758Z,-3.30
2023-03-01T06:40:12.353Z,-3.30
2023-03-01T06:42:42.006Z,-3.40
2023-03-01T06:45:10.219Z,-3.30
2023-03-01T06:47:36.986Z,-3.40
2023-03-01T06:50:04.353Z,-3.40
2023-03-01T06:52:31.227Z,-3.40
2023-03-01T06:54:58.205Z,-3.40
2023-03-01T06:57:25.116Z,-3.40
2023-03-01T06:59:52.049Z,-3.40
2023-03-01T07:02:18.882Z,-3.30
2023-03-01T07:04:45.716Z,-3.30
2023-03-01T07:07:12.629Z,-3.20
2023-03-01T07:09:39.525Z,-3.10
2023-03-01T07:12:06.790Z,-3.00
2023-03-01T07:14:33.682Z,-2.90
2023-03-01T07:17:00.626Z,-2.80
2023-03-01T07:19:28.014Z,-2.70
2023-03-01T07:21:56.423Z,-2.60
2023-03-01T07:24:23.847Z,-2.60
2023-03-01T07:26:52.261Z,-2.60
2023-03-01T07:29:19.473Z,-2.60
2023-03-01T07:31:46.686Z,-2.70
2023-03-01T07:34:16.800Z,-2.60
2023-03-01T07:36:44.311Z,-2.60
2023-03-01T07:39:12.075Z,-2.60
2023-03-01T07:41:38.938Z,-2.60
2023-03-01T07:44:05.798Z,-2.60
2023-03-01T07:46:33.546Z,-2.60
2023-03-01T07:49:00.515Z,-2.60
2023-03-01T07:51:27.492Z,-2.50
2023-03-01T07:53:54.535Z,-2.50
2023-03-01T07:56:23.152Z,-2.40
2023-03-01T07:58:51.203Z,-2.40
2023-03-01T08:01:21.101Z,-2.30
2023-03-01T08:03:48.767Z,-2.20
2023-03-01T08:06:17.376Z,-2.10
2023-03-01T08:08:44.844Z,-2.00
2023-03-01T08:11:13.809Z,-2.00
2023-03-01T08:13:41.138Z,-1.90
2023-03-01T08:16:11.930Z,-1.90
2023-03-01T08:18:39.568Z,-1.80
2023-03-01T08:21:09.486Z,-1.70
2023-03-01T08:23:36.301Z,-1.60
2023-03-01T08:26:13.089Z,-1.50
2023-03-01T08:28:40.221Z,-1.40
2023-03-01T08:31:19.994Z,-1.30
2023-03-01T08:33:52.687Z,-1.30
2023-03-01T08:36:20.729Z,-1.30
2023-03-01T08:38:47.767Z,-1.30
2023-03-01T08:41:15.498Z,-1.30
2023-03-01T08:43:42.556Z,-1.40
2023-03-01T08:46:09.829Z,-1.40
2023-03-01T08:48:36.760Z,-1.40
2023-03-01T08:51:16.358Z,-1.30
2023-03-01T08:53:43.810Z,-1.30
2023-03-01T08:56:11.668Z,-1.30
2023-03-01T08:58:39.080Z,-1.20
2023-03-01T09:01:13.775Z,-1.20
2023-03-01T09:03:40.827Z,-1.10
2023-03-01T09:06:08.693Z,-1.00
2023-03-01T09:08:37.075Z,-1.00
2023-03-01T09:11:05.585Z,-0.80
2023-03-01T09:13:33.434Z,-0.70
2023-03-01T09:16:02.416Z,-0.70
2023-03-01T09:18:29.713Z,-0.60
2023-03-01T09:21:09.096Z,-0.60
2023-03-01T09:23:41.116Z,-0.40
2023-03-01T09:26:20.350Z,-0.40
2023-03-01T09:28:48.116Z,-0.30
2023-03-01T09:31:16.573Z,-0.20
2023-03-01T09:33:47.049Z,-0.10
2023-03-01T09:36:17.601Z,0.00
2023-03-01T09:38:45.010Z,0.20
2023-03-01T09:41:36.426Z,0.30
2023-03-01T09:44:14.961Z,0.40
2023-03-01T09:46:44.338Z,0.60
2023-03-01T09:49:23.636Z,0.60
2023-03-01T09:52:16.550Z,0.70
2023-03-01T09:54:43.451Z,0.90
2023-03-01T09:57:21.506Z,0.90
2023-03-01T10:00:14.301Z,1.00
2023-03-01T10:02:57.312Z,1.10
2023-03-01T10:05:39.951Z,1.20
2023-03-01T10:08:34.784Z,1.30
2023-03-01T10:11:01.760Z,1.30
2023-03-01T10:13:55.021Z,1.40
2023-03-01T10:16:47.736Z,1.40
2023-03-01T10:19:32.128Z,1.50
2023-03-01T10:22:24.980Z,1.60
2023-03-01T10:24:54.701Z,1.60
2023-03-01T10:27:41.967Z,1.70
2023-03-01T10:30:21.497Z,1.70
2023-03-01T10:32:51.055Z,1.80
2023-03-01T10:35:24.618Z,1.90
2023-03-01T10:38:12.056Z,2.00
2023-03-01T10:40:53.256Z,2.10
2023-03-01T10:43:20.501Z,2.10
2023-03-01T10:45:47.554Z,2.30
2023-03-01T10:48:27.208Z,2.40
2023-03-01T10:51:00.584Z,2.50
2023-03-01T10:53:42.721Z,2.60
2023-03-01T10:56:14.780Z,2.70
2023-03-01T10:58:57.852Z,2.80
2023-03-01T11:01:26.359Z,2.90
2023-03-01T11:04:08.794Z,3.00
2023-03-01T11:06:37.056Z,3.10
2023-03-01T11:09:20.189Z,3.30
2023-03-01T11:11:49.920Z,3.40
2023-03-01T11:14:26.309Z,3.50
2023-03-01T11:17:03.920Z,3.60
2023-03-01T11:19:31.485Z,3.80
2023-03-01T11:22:03.662Z,3.90
2023-03-01T11:24:45.887Z,4.10
2023-03-01T11:27:29.561Z,4.20
2023-03-01T11:30:32.922Z,4.30
2023-03-01T11:33:34.393Z,4.40
2023-03-01T11:36:14.357Z,4.40
2023-03-01T11:38:41.714Z,4.50
2023-03-01T11:41:46.284Z,4.60
2023-03-01T11:44:20.951Z,4.70
2023-03-01T11:47:16.429Z,4.70
2023-03-01T11:50:25.804Z,4.70
2023-03-01T11:52:56.016Z,4.80
2023-03-01T11:55:47.614Z,4.80
2023-03-01T11:58:17.133Z,4.90
2023-03-01T12:01:02.639Z,4.90
2023-03-01T12:03:40.471Z,5.00
2023-03-01T12:06:10.368Z,5.20
2023-03-01T12:08:50.567Z,5.20
2023-03-01T12:11:24.736Z,5.30
2023-03-01T12:14:07.936Z,5.30
2023-03-01T12:16:55.959Z,5.30
2023-03-01T12:19:44.159Z,5.30
2023-03-01T12:22:29.414Z,5.40
2023-03-01T12:25:18.139Z,5.60
2023-03-01T12:27:59.868Z,5.70
2023-03-01T12:30:50.931Z,5.70
2023-03-01T12:33:54.930Z,5.60
2023-03-01T12:36:34.138Z,5.70
2023-03-01T12:39:14.042Z,5.80
2023-03-01T12:41:59.533Z,6.00
2023-03-01T12:44:45.109Z,6.00
2023-03-01T12:47:17.958Z,6.20
2023-03-01T12:49:50.879Z,6.30
2023-03-01T12:52:57.756Z,6.50
2023-03-01T12:55:34.326Z,6.60
2023-03-01T12:58:25.623Z,6.70
2023-03-01T13:01:17.982Z,6.80
2023-03-01T13:04:17.320Z,6.90
2023-03-01T13:07:11.400Z,6.90
2023-03-01T13:10:22.820Z,6.90
2023-03-01T13:12:58.923Z,6.90
2023-03-01T13:15:34.262Z,6.90
2023-03-01T13:18:04.632Z,6.90
2023-03-01T13:20:43.549Z,6.90
2023-03-01T13:23:22.620Z,6.90
2023-03-01T13:26:12.851Z,7.00
2023-03-01T13:28:49.520Z,7.00
2023-03-01T13:31:17.022Z,7.00
2023-03-01T13:33:56.546Z,7.00
2023-03-01T13:36:43.687Z,7.00
2023-03-01T13:39:41.321Z,7.00
2023-03-01T13:42:31.310Z,7.10
2023-03-01T13:44:58.493Z,7.10
2023-03-01T13:47:25.736Z,7.10
2023-03-01T13:50:01.160Z,7.10
2023-03-01T13:53:06.512Z,7.20
2023-03-01T13:55:44.384Z,7.20
2023-03-01T13:58:27.420Z,7.20
2023-03-01T14:00:58.589Z,7.20
2023-03-01T14:03:26.221Z,7.20
2023-03-01T14:06:13.176Z,7.20
2023-03-01T14:08:44.099Z,7.20
2023-03-01T14:11:31.273Z,7.30
2023-03-01T14:14:14.226Z,7.30
2023-03-01T14:16:53.039Z,7.30
2023-03-01T14:19:34.066Z,7.40
2023-03-01T14:22:29.985Z,7.40
2023-03-01T14:24:59.948Z,7.40
2023-03-01T14:27:30.955Z,7.40
2023-03-01T14:30:04.358Z,7.40
2023-03-01T14:32:33.596Z,7.40
2023-03-01T14:35:01.456Z,7.40
2023-03-01T14:37:32.507Z,7.40
2023-03-01T14:40:01.282Z,7.40
2023-03-01T14:42:36.181Z,7.40
2023-03-01T14:45:05.212Z,7.40
2023-03-01T14:47:37.270Z,7.30
2023-03-01T14:50:22.431Z,7.40
2023-03-01T14:52:52.952Z,7.30
2023-03-01T14:55:42.267Z,7.30
2023-03-01T14:58:19.806Z,7.30
2023-03-01T15:01:09.398Z,7.20
2023-03-01T15:03:45.127Z,7.20
2023-03-01T15:06:16.460Z,7.20
2023-03-01T15:08:47.705Z,7.20
2023-03-01T15:11:14.618Z,7.20
2023-03-01T15:13:42.138Z,7.20
2023-03-01T15:16:15.056Z,7.30
2023-03-01T15:18:55.238Z,7.20
2023-03-01T15:21:38.762Z,7.20
2023-03-01T15:24:20.897Z,7.20
2023-03-01T15:27:02.881Z,7.10
2023-03-01T15:29:34.285Z,7.00
2023-03-01T15:32:04.834Z,7.00
2023-03-01T15:34:33.489Z,6.90
2023-03-01T15:37:03.266Z,6.80
2023-03-01T15:39:55.044Z,6.80
2023-03-01T15:42:28.330Z,6.80
2023-03-01T15:45:31.758Z,6.80
2023-03-01T15:48:07.288Z,6.80
2023-03-01T15:50:36.923Z,6.70
2023-03-01T15:53:12.223Z,6.60
2023-03-01T15:55:39.104Z,6.60
2023-03-01T15:58:15.483Z,6.60
2023-03-01T16:00:59.105Z,6.50
2023-03-01T16:03:27.216Z,6.50
2023-03-01T16:05:54.673Z,6.40
2023-03-01T16:08:21.545Z,6.30
2023-03-01T16:10:50.969Z,6.20
2023-03-01T16:13:18.728Z,6.10
2023-03-01T16:15:45.827Z,6.00
2023-03-01T16:18:13.037Z,5.90
2023-03-01T16:20:41.087Z,5.80
2023-03-01T16:23:09.139Z,5.70
2023-03-01T16:25:36.535Z,5.70
2023-03-01T16:28:09.615Z,5.60
2023-03-01T16:30:41.076Z,5.50
2023-03-01T16:33:26.877Z,5.30
2023-03-01T16:35:56.213Z,5.20
2023-03-01T16:38:23.047Z,5.20
2023-03-01T16:40:52.680Z,5.00
2023-03-01T16:43:19.813Z,4.90
2023-03-01T16:45:47.506Z,4.80
2023-03-01T16:48:14.837Z,4.70
2023-03-01T16:50:42.047Z,4.70
2023-03-01T16:53:08.938Z,4.60
2023-03-01T16:55:35.810Z,4.50
2023-03-01T16:58:03.665Z,4.40
2023-03-01T17:00:30.534Z,4.30
2023-03-01T17:02:57.488Z,4.20
2023-03-01T17:05:25.576Z,4.10
2023-03-01T17:07:52.645Z,4.00
2023-03-01T17:10:19.512Z,4.00
2023-03-01T17:12:50.882Z,3.90
2023-03-01T17:15:18.034Z,3.80
2023-03-01T17:17:44.997Z,3.70
2023-03-01T17:20:12.510Z,3.70
2023-03-01T17:22:39.418Z,3.70
2023-03-01T17:25:10.204Z,3.60
2023-03-01T17:27:38.721Z,3.50
2023-03-01T17:30:09.074Z,3.40
2023-03-01T17:32:36.160Z,3.30
2023-03-01T17:35:03.187Z,3.20
2023-03-01T17:37:29.992Z,3.10
2023-03-01T17:39:57.056Z,3.10
2023-03-01T17:42:23.967Z,3.10
2023-03-01T17:44:50.945Z,3.00
2023-03-01T17:47:17.873Z,3.00
2023-03-01T17:49:45.251Z,2.90
2023-03-01T17:52:12.094Z,2.80
2023-03-01T17:54:39.020Z,2.80
2023-03-01T17:57:05.919Z,2.80
2023-03-01T17:59:34.137Z,2.70
2023-03-01T18:02:01.852Z,2.70
2023-03-01T18:04:29.671Z,2.70
2023-03-01T18:06:56.744Z,2.60
2023-03-01T18:09:23.702Z,2.60
2023-03-01T18:11:50.572Z,2.50
2023-03-01T18:14:17.691Z,2.50
2023-03-01T18:16:44.600Z,2.50
2023-03-01T18:19:13.075Z,2.50
2023-03-01T18:21:39.877Z,2.50
2023-03-01T18:24:07.031Z,2.50
2023-03-01T18:26:34.369Z,2.40
2023-03-01T18:29:03.412Z,2.30
2023-03-01T18:31:33.439Z,2.10
2023-03-01T18:34:03.435Z,2.10
2023-03-01T18:36:33.892Z,2.00
2023-03-01T18:39:08.192Z,1.90
2023-03-01T18:41:36.204Z,1.80
2023-03-01T18:44:04.742Z,1.70
2023-03-01T18:46:33.327Z,1.60
2023-03-01T18:49:01.071Z,1.50
2023-03-01T18:51:30.411Z,1.40
2023-03-01T18:53:59.007Z,1.30
2023-03-01T18:56:26.882Z,1.30
2023-03-01T18:58:53.692Z,1.20
2023-03-01T19:01:24.318Z,1.20
2023-03-01T19:03:52.317Z,1.30
2023-03-01T19:06:20.410Z,1.30
2023-03-01T19:08:47.428Z,1.20
2023-03-01T19:11:18.520Z,1.10
2023-03-01T19:13:46.862Z,1.10
2023-03-01T19:16:17.645Z,1.00
2023-03-01T19:18:50.464Z,0.90
2023-03-01T19:21:22.547Z,0.80
2023-03-01T19:23:49.569Z,0.80
2023-03-01T19:26:23.257Z,0.70
2023-03-01T19:28:50.307Z,0.70
2023-03-01T19:31:24.245Z,0.60
2023-03-01T19:33:52.883Z,0.70
2023-03-01T19:36:32.804Z,0.60
2023-03-01T19:39:01.605Z,0.60
2023-03-01T19:41:29.011Z,0.60
2023-03-01T19:43:57.344Z,0.60
2023-03-01T19:46:25.266Z,0.60
2023-03-01T19:48:54.133Z,0.50
2023-03-01T19:51:21.424Z,0.40
2023-03-01T19:53:48.330Z,0.40
2023-03-01T19:56:15.100Z,0.30
2023-03-01T19:58:42.565Z,0.20
2023-03-01T20:01:18.234Z,0.20
2023-03-01T20:03:46.028Z,0.20
2023-03-01T20:06:20.248Z,0.20
2023-03-01T20:08:47.707Z,0.20
2023-03-01T20:11:17.027Z,0.30
2023-03-01T20:13:44.602Z,0.30
2023-03-01T20:16:13.001Z,0.30
2023-03-01T20:18:40.198Z,0.40
2023-03-01T20:21:18.154Z,0.50
2023-03-01T20:23:50.413Z,0.60
2023-03-01T20:26:19.663Z,0.60
2023-03-01T20:28:48.827Z,0.60
2023-03-01T20:31:17.194Z,0.50
2023-03-01T20:33:44.257Z,0.60
2023-03-01T20:36:11.359Z,0.60
2023-03-01T20:38:39.030Z,0.60
2023-03-01T20:41:11.718Z,0.60
2023-03-01T20:43:40.776Z,0.60
2023-03-01T20:46:13.168Z,0.50
2023-03-01T20:48:43.216Z,0.50
2023-03-01T20:51:11.328Z,0.50
2023-03-01T20:53:38.178Z,0.50
2023-03-01T20:56:11.684Z,0.40
2023-03-01T20:58:39.420Z,0.40
2023-03-01T21:01:07.354Z,0.30
2023-03-01T21:03:34.667Z,0.20
2023-03-01T21:06:03.492Z,0.30
2023-03-01T21:08:31.247Z,0.30
2023-03-01T21:10:58.696Z,0.30
2023-03-01T21:13:27.377Z,0.40
2023-03-01T21:15:58.253Z,0.40
2023-03-01T21:18:30.010Z,0.50
2023-03-01T21:21:02.333Z,0.50
2023-03-01T21:23:31.135Z,0.50
2023-03-01T21:26:02.234Z,0.50
2023-03-01T21:28:32.694Z,0.50
2023-03-01T21:31:08.448Z,0.50
2023-03-01T21:33:36.682Z,0.50
2023-03-01T21:36:08.841Z,0.40
2023-03-01T21:38:41.269Z,0.40
2023-03-01T21:41:13.610Z,0.40
2023-03-01T21:43:42.189Z,0.40
2023-03-01T21:46:13.103Z,0.40
2023-03-01T21:48:43.554Z,0.40
2023-03-01T21:51:13.493Z,0.30
2023-03-01T21:53:40.735Z,0.30
2023-03-01T21:56:09.664Z,0.40
2023-03-01T21:58:36.896Z,0.40
2023-03-01T22:01:13.140Z,0.40
2023-03-01T22:03:45.572Z,0.40
2023-03-01T22:06:19.531Z,0.40
2023-03-01T22:08:55.308Z,0.30
2023-03-01T22:11:23.105Z,0.30
2023-03-01T22:13:52.227Z,0.30
2023-03-01T22:16:21.431Z,0.20
2023-03-01T22:18:49.134Z,0.20
2023-03-01T22:21:16.327Z,0.20
2023-03-01T22:23:43.818Z,0.10
2023-03-01T22:26:31.772Z,0.10
2023-03-01T22:29:01.624Z,0.00
2023-03-01T22:31:28.933Z,0.00
2023-03-01T22:33:56.753Z,0.00
2023-03-01T22:36:23.968Z,-0.10
2023-03-01T22:38:58.483Z,0.00
2023-03-01T22:41:33.343Z,0.00
2023-03-01T22:44:00.276Z,0.00
2023-03-01T22:46:28.662Z,-0.10
2023-03-01T22:48:56.293Z,-0.10
2023-03-01T22:51:29.943Z,-0.20
2023-03-01T22:53:57.604Z,-0.30
2023-03-01T22:56:28.912Z,-0.30
2023-03-01T22:58:57.782Z,-0.40
2023-03-01T23:01:26.319Z,-0.50
2023-03-01T23:03:53.633Z,-0.50
2023-03-01T23:06:21.780Z,-0.50
2023-03-01T23:08:54.266Z,-0.60
2023-03-01T23:11:22.708Z,-0.60
2023-03-01T23:13:50.554Z,-0.60
2023-03-01T23:16:18.431Z,-0.70
2023-03-01T23:18:45.590Z,-0.60
2023-03-01T23:21:18.776Z,-0.60
2023-03-01T23:23:47.224Z,-0.70
2023-03-01T23:26:15.669Z,-0.70
2023-03-01T23:28:42.499Z,-0.80
2023-03-01T23:31:12.143Z,-0.80
2023-03-01T23:33:39.460Z,-0.90
2023-03-01T23:36:24.609Z,-0.90
2023-03-01T23:38:54.229Z,-0.90
2023-03-01T23:41:23.600Z,-0.90
2023-03-01T23:43:52.998Z,-0.90
2023-03-01T23:46:23.512Z,-0.90
2023-03-01T23:48:50.581Z,-0.90
2023-03-01T23:51:18.596Z,-0.90
2023-03-01T23:53:54.517Z,-0.90
2023-03-01T23:56:39.008Z,-0.90
2023-03-01T23:59:12.032Z,-0.90
